Armbrust, PA

11:47 PM EDT on May 05, 2015 (GMT -0400)
Midway St. Clair | | Change Station
CLOSE
Current Station
Personal Weather Station
Location: Greensburg, PA
Elevation: 1135 ft
Nearby Weather Stations

Elev 1135 ft 40.27 °N, 79.56 °W | Updated 10 seconds ago

Partly Cloudy
Partly Cloudy
63.1 °F
Feels Like 63.1 °F
N
0.0
Wind Variable Wind from South
Gusts 0.0 mph

Today
High -- | Low -- °F
--% Chance of Precip.
Yesterday
High -- | Low -- °F
Precip. -- in
6:13 AM 8:17 PM
Waning Gibbous, 96% visible
Pressure 30.26 in
Visibility 10.0 miles
Clouds Few 6000 ft
Dew Point 60 °F
Humidity 89%
Rainfall 0.15 in
Snow Depth Not available.
UV 0 out of 12
Pollen 5.80 out of 12
Air Quality Not available.
Flu Activity Sporadic
METAR KLBE 060335Z AUTO 00000KT 10SM FEW060 17/16 A3026 RMK AO2

More Conditions Fewer Conditions

Pressure 30.26 in
Visibility 10.0 miles
Clouds Few 6000 ft
Dew Point 60 °F
Humidity 89%
Rainfall 0.15 in
Snow Depth Not available.
UV 0 out of 12
Pollen 5.80 out of 12
Air Quality Not available.
Flu Activity Sporadic
METAR KLBE 060335Z AUTO 00000KT 10SM FEW060 17/16 A3026 RMK AO2

More Conditions Fewer Conditions

10-Day Weather Forecast

Almanac

Astronomy

May. 05, 2015 Rise Set
Actual Time
Civil Twilight
Nautical Twilight
Astronomical Twilight
Moon
Length of Visible Light
Length of Day
Tomorrow will be .
, % of the Moon is Illuminated

Today's Extremes

State Highs State Lows

Community

WunderPhotos

Upload Photos

1,819,064 photos uploaded!

WunderBlogs® & News

Nearby

Air Quality

  Air Quality AQ Index Pollutant
Not available.

Snow Depth

Station Depth Elevation

Earthquake Activity

City Distance Mag. Time & Date
Minimum magnitude displayed is 2.5.

Coastal Water Temperatures

Place Temperature

Stations

Nearby Weather Stations

Station Location Temp. Windchill Dew Point Humidity Wind Precip. Elev Updated Type